Time,TemperatureF,DewpointF,PressureIn,WindDirection,WindDirectionDegrees,WindSpeedMPH,WindSpeedGustMPH,Humidity,HourlyPrecipIn,Conditions,Clouds,dailyrainin,SoftwareType,DateUTC
2013-02-22 00:04:00,41.9,38.9,29.80,SW,225,2.3,2.3,89,0.00,RA,,0.00,WeatherDisplay:10.37,2013-02-22 08:04:00,
2013-02-22 00:09:00,41.9,38.9,29.80,SSE,158,0.0,0.0,89,0.00,RA,,0.00,WeatherDisplay:10.37,2013-02-22 08:09:00,
2013-02-22 00:14:00,41.9,38.9,29.80,SW,225,0.0,0.0,89,0.00,CLR,,0.00,WeatherDisplay:10.37,2013-02-22 08:14:00,
2013-02-22 00:19:00,41.9,38.9,29.80,ENE,68,0.0,0.0,89,0.00,CLR,,0.00,WeatherDisplay:10.37,2013-02-22 08:19:00,
2013-02-22 00:24:00,41.7,38.7,29.79,SSE,158,0.0,0.0,89,0.00,CLR,,0.00,WeatherDisplay:10.37,2013-02-22 08:24:00,
2013-02-22 00:29:00,41.7,38.7,29.79,South,180,0.0,0.0,89,0.00,CLR,,0.00,WeatherDisplay:10.37,2013-02-22 08:29:00,
2013-02-22 00:34:00,41.7,38.7,29.80,ENE,68,0.0,0.0,89,0.00,CLR,,0.00,WeatherDisplay:10.37,2013-02-22 08:34:00,
2013-02-22 00:39:00,41.7,38.7,29.80,ESE,112,3.5,3.5,89,0.00,CLR,,0.00,WeatherDisplay:10.37,2013-02-22 08:39:00,
2013-02-22 00:44:00,41.7,38.7,29.80,South,180,0.0,0.0,89,0.00,CLR,,0.00,WeatherDisplay:10.37,2013-02-22 08:44:00,
2013-02-22 00:49:00,41.7,38.7,29.79,South,180,1.2,1.2,89,0.00,CLR,,0.00,WeatherDisplay:10.37,2013-02-22 08:49:00,
2013-02-22 00:54:00,41.7,38.7,29.79,NE,45,0.0,0.0,89,0.00,CLR,,0.00,WeatherDisplay:10.37,2013-02-22 08:54:00,
2013-02-22 00:59:00,41.7,38.7,29.79,SW,225,0.0,0.0,89,0.00,CLR,,0.00,WeatherDisplay:10.37,2013-02-22 08:59:00,
2013-02-22 01:04:00,41.9,38.9,29.79,South,180,0.0,0.0,89,0.00,CLR,,0.00,WeatherDisplay:10.37,2013-02-22 09:04:00,
2013-02-22 01:10:00,41.9,38.9,29.80,NE,45,0.0,0.0,89,0.00,CLR,,0.00,WeatherDisplay:10.37,2013-02-22 09:10:00,
2013-02-22 01:15:00,41.9,38.9,29.80,WNW,292,0.0,0.0,89,0.00,CLR,,0.00,WeatherDisplay:10.37,2013-02-22 09:15:00,
2013-02-22 01:21:00,41.9,38.9,29.79,South,180,0.0,0.0,89,0.00,CLR,,0.00,WeatherDisplay:10.37,2013-02-22 09:21:00,
2013-02-22 01:26:00,41.9,38.9,29.79,SSW,202,0.0,0.0,89,0.00,CLR,,0.00,WeatherDisplay:10.37,2013-02-22 09:26:00,
2013-02-22 01:32:00,41.9,38.9,29.79,ESE,112,6.9,6.9,89,0.00,CLR,,0.00,WeatherDisplay:10.37,2013-02-22 09:32:00,
2013-02-22 01:37:00,41.9,38.9,29.79,ENE,68,0.0,0.0,89,0.00,CLR,,0.00,WeatherDisplay:10.37,2013-02-22 09:37:00,
2013-02-22 01:42:00,41.9,38.9,29.79,SSW,202,6.3,6.3,89,0.00,CLR,,0.00,WeatherDisplay:10.37,2013-02-22 09:42:00,
2013-02-22 01:47:00,41.9,38.9,29.79,ESE,112,0.0,0.0,89,0.00,CLR,,0.00,WeatherDisplay:10.37,2013-02-22 09:47:00,
2013-02-22 01:52:00,41.9,38.9,29.79,ENE,68,0.0,0.0,89,0.00,CLR,,0.00,WeatherDisplay:10.37,2013-02-22 09:52:00,
2013-02-22 01:57:00,41.9,38.9,29.79,ESE,112,2.2,2.2,89,0.00,CLR,,0.00,WeatherDisplay:10.37,2013-02-22 09:57:00,
2013-02-22 02:02:00,41.7,38.7,29.78,SSE,158,2.3,0.0,89,0.00,CLR,,0.00,WeatherDisplay:10.37,2013-02-22 10:02:00,
2013-02-22 02:07:00,41.5,38.5,29.79,East,90,0.0,0.0,89,0.00,CLR,,0.00,WeatherDisplay:10.37,2013-02-22 10:07:00,
2013-02-22 02:12:00,41.4,38.4,29.78,SSE,158,0.0,0.0,89,0.00,CLR,,0.00,WeatherDisplay:10.37,2013-02-22 10:12:00,
2013-02-22 02:17:00,41.2,38.2,29.78,South,180,6.9,6.9,89,0.04,RA,,0.04,WeatherDisplay:10.37,2013-02-22 10:17:00,
2013-02-22 02:22:00,41.2,38.5,29.78,SE,135,0.0,0.0,90,0.04,RA,,0.04,WeatherDisplay:10.37,2013-02-22 10:22:00,
2013-02-22 02:27:00,40.8,38.1,29.78,East,90,0.0,0.0,90,0.04,CLR,,0.04,WeatherDisplay:10.37,2013-02-22 10:27:00,
2013-02-22 02:32:00,40.8,38.1,29.78,East,90,0.0,0.0,90,0.04,CLR,,0.04,WeatherDisplay:10.37,2013-02-22 10:32:00,
2013-02-22 02:37:00,40.8,38.1,29.78,SE,135,0.0,0.0,90,0.04,CLR,,0.04,WeatherDisplay:10.37,2013-02-22 10:37:00,
2013-02-22 02:42:00,40.6,37.9,29.78,East,90,0.0,0.0,90,0.08,RA,,0.08,WeatherDisplay:10.37,2013-02-22 10:42:00,
2013-02-22 02:47:00,40.6,38.2,29.78,ESE,112,0.0,0.0,91,0.08,RA,,0.08,WeatherDisplay:10.37,2013-02-22 10:47:00,
2013-02-22 02:52:00,40.5,38.0,29.78,SSE,158,0.0,0.0,91,0.08,,,0.08,WeatherDisplay:10.37,2013-02-22 10:52:00,
2013-02-22 02:57:00,40.3,37.9,29.78,SSE,158,0.0,0.0,91,0.08,CLR,,0.12,WeatherDisplay:10.37,2013-02-22 10:57:00,
2013-02-22 03:02:00,40.3,37.9,29.78,East,90,0.0,0.0,91,0.12,RA,,0.12,WeatherDisplay:10.37,2013-02-22 11:02:00,
2013-02-22 03:07:00,40.3,38.1,29.78,NE,45,0.0,0.0,92,0.12,RA,,0.12,WeatherDisplay:10.37,2013-02-22 11:07:00,
2013-02-22 03:12:00,40.1,38.0,29.77,SE,135,0.0,0.0,92,0.12,CLR,,0.12,WeatherDisplay:10.37,2013-02-22 11:12:00,
2013-02-22 03:17:00,40.1,38.0,29.76,South,180,3.5,0.0,92,0.12,RA,,0.16,WeatherDisplay:10.37,2013-02-22 11:17:00,
2013-02-22 03:22:00,39.9,37.8,29.75,ENE,68,1.2,1.3,92,0.12,RA,,0.16,WeatherDisplay:10.37,2013-02-22 11:22:00,
2013-02-22 03:27:00,39.9,37.8,29.75,SSE,158,0.0,0.0,92,0.12,CLR,,0.16,WeatherDisplay:10.37,2013-02-22 11:27:00,
2013-02-22 03:32:00,39.9,37.8,29.76,SSE,158,0.0,0.0,92,0.12,CLR,,0.16,WeatherDisplay:10.37,2013-02-22 11:32:00,
2013-02-22 03:37:00,39.9,38.1,29.76,SSE,158,0.0,0.0,93,0.12,CLR,,0.16,WeatherDisplay:10.37,2013-02-22 11:37:00,
2013-02-22 03:42:00,39.7,37.9,29.76,South,180,0.0,0.0,93,0.08,CLR,,0.16,WeatherDisplay:10.37,2013-02-22 11:42:00,
2013-02-22 03:47:00,39.7,37.9,29.75,SE,135,0.0,0.0,93,0.08,CLR,,0.16,WeatherDisplay:10.37,2013-02-22 11:47:00,
2013-02-22 03:52:00,39.7,37.9,29.74,SE,135,0.0,0.0,93,0.08,CLR,,0.16,WeatherDisplay:10.37,2013-02-22 11:52:00,
2013-02-22 03:57:00,39.7,37.9,29.74,ENE,68,0.0,0.0,93,0.08,CLR,,0.16,WeatherDisplay:10.37,2013-02-22 11:57:00,
2013-02-22 04:02:00,39.7,37.9,29.73,SW,225,0.0,0.0,93,0.04,CLR,,0.16,WeatherDisplay:10.37,2013-02-22 12:02:00,
2013-02-22 04:07:00,39.7,37.9,29.73,SE,135,0.0,0.0,93,0.04,CLR,,0.16,WeatherDisplay:10.37,2013-02-22 12:07:00,
2013-02-22 04:12:00,39.7,37.9,29.73,SSW,202,0.0,0.0,93,0.04,CLR,,0.16,WeatherDisplay:10.37,2013-02-22 12:12:00,
2013-02-22 04:17:00,39.7,37.9,29.72,SSE,158,1.2,1.5,93,0.04,RA,,0.20,WeatherDisplay:10.37,2013-02-22 12:17:00,
2013-02-22 04:22:00,39.7,37.9,29.72,East,90,0.0,0.0,93,0.04,RA,,0.20,WeatherDisplay:10.37,2013-02-22 12:22:00,
2013-02-22 04:27:00,39.6,38.0,29.72,East,90,4.5,4.5,94,0.04,CLR,,0.20,WeatherDisplay:10.37,2013-02-22 12:27:00,
2013-02-22 04:32:00,39.6,38.0,29.73,East,90,4.6,4.6,94,0.04,CLR,,0.20,WeatherDisplay:10.37,2013-02-22 12:32:00,
2013-02-22 04:37:00,39.6,38.0,29.73,ESE,112,0.0,0.0,94,0.04,CLR,,0.20,WeatherDisplay:10.37,2013-02-22 12:37:00,
2013-02-22 04:42:00,39.6,38.0,29.72,ESE,112,0.0,0.0,94,0.04,CLR,,0.20,WeatherDisplay:10.37,2013-02-22 12:42:00,
2013-02-22 04:47:00,39.6,38.0,29.72,SSE,158,3.5,3.5,94,0.04,CLR,,0.20,WeatherDisplay:10.37,2013-02-22 12:47:00,
2013-02-22 04:52:00,39.6,38.0,29.71,ESE,112,0.0,0.0,94,0.04,CLR,,0.20,WeatherDisplay:10.37,2013-02-22 12:52:00,
2013-02-22 04:57:00,39.6,38.0,29.71,South,180,4.6,4.6,94,0.04,CLR,,0.20,WeatherDisplay:10.37,2013-02-22 12:57:00,
2013-02-22 05:02:00,39.6,38.0,29.72,ESE,112,0.0,0.0,94,0.04,CLR,,0.20,WeatherDisplay:10.37,2013-02-22 13:02:00,
2013-02-22 05:07:00,39.6,38.0,29.70,SSE,158,1.2,1.2,94,0.04,CLR,,0.20,WeatherDisplay:10.37,2013-02-22 13:07:00,
2013-02-22 05:12:00,39.6,38.0,29.70,South,180,6.9,6.9,94,0.04,CLR,,0.20,WeatherDisplay:10.37,2013-02-22 13:12:00,
2013-02-22 05:17:00,39.6,38.0,29.70,South,180,8.1,8.1,94,0.00,CLR,,0.20,WeatherDisplay:10.37,2013-02-22 13:17:00,
2013-02-22 05:22:00,39.4,37.8,29.71,East,90,0.0,0.0,94,0.00,CLR,,0.20,WeatherDisplay:10.37,2013-02-22 13:22:00,
2013-02-22 05:27:00,39.4,37.8,29.70,South,180,3.4,3.4,94,0.00,CLR,,0.20,WeatherDisplay:10.37,2013-02-22 13:27:00,
2013-02-22 05:32:00,39.4,37.8,29.69,SE,135,1.6,1.6,94,0.00,CLR,,0.20,WeatherDisplay:10.37,2013-02-22 13:32:00,
2013-02-22 05:37:00,39.4,37.8,29.69,SE,135,5.8,5.8,94,0.00,CLR,,0.20,WeatherDisplay:10.37,2013-02-22 13:37:00,
2013-02-22 05:42:00,39.4,37.8,29.69,SE,135,0.0,0.0,94,0.00,CLR,,0.20,WeatherDisplay:10.37,2013-02-22 13:42:00,
2013-02-22 05:47:00,39.4,37.8,29.68,ENE,68,3.8,3.8,94,0.00,CLR,,0.20,WeatherDisplay:10.37,2013-02-22 13:47:00,
2013-02-22 05:52:00,39.4,37.8,29.67,SSE,158,0.0,0.0,94,0.00,CLR,,0.20,WeatherDisplay:10.37,2013-02-22 13:52:00,
2013-02-22 05:57:00,39.4,37.8,29.67,East,90,0.0,0.0,94,0.00,CLR,,0.20,WeatherDisplay:10.37,2013-02-22 13:57:00,
2013-02-22 06:02:00,39.4,37.8,29.67,East,90,0.0,0.0,94,0.00,CLR,,0.20,WeatherDisplay:10.37,2013-02-22 14:02:00,
2013-02-22 06:07:00,39.4,37.8,29.66,SE,135,3.5,3.5,94,0.00,CLR,,0.20,WeatherDisplay:10.37,2013-02-22 14:07:00,
2013-02-22 06:12:00,39.4,37.8,29.66,ENE,68,0.0,0.0,94,0.00,CLR,,0.20,WeatherDisplay:10.37,2013-02-22 14:12:00,
2013-02-22 06:17:00,39.4,37.8,29.65,SSE,158,1.2,1.2,94,0.00,CLR,,0.20,WeatherDisplay:10.37,2013-02-22 14:17:00,
2013-02-22 06:22:00,39.4,37.8,29.66,SSE,158,0.0,0.0,94,0.00,CLR,,0.20,WeatherDisplay:10.37,2013-02-22 14:22:00,
2013-02-22 06:27:00,39.4,37.8,29.66,South,180,3.5,3.5,94,0.00,CLR,,0.20,WeatherDisplay:10.37,2013-02-22 14:27:00,
2013-02-22 06:32:00,39.6,38.0,29.65,ENE,68,0.0,0.0,94,0.00,CLR,,0.20,WeatherDisplay:10.37,2013-02-22 14:32:00,
2013-02-22 06:37:00,39.4,37.8,29.64,SSE,158,2.3,2.3,94,0.00,CLR,,0.20,WeatherDisplay:10.37,2013-02-22 14:37:00,
2013-02-22 06:42:00,39.4,37.8,29.64,ESE,112,8.1,8.1,94,0.00,CLR,,0.20,WeatherDisplay:10.37,2013-02-22 14:42:00,
2013-02-22 06:47:00,39.4,37.8,29.64,East,90,0.0,0.0,94,0.00,CLR,,0.20,WeatherDisplay:10.37,2013-02-22 14:47:00,
2013-02-22 06:52:00,39.4,37.8,29.63,ENE,68,0.0,0.0,94,0.00,CLR,,0.20,WeatherDisplay:10.37,2013-02-22 14:52:00,
2013-02-22 06:57:00,39.4,37.8,29.62,SSE,158,1.2,1.2,94,0.00,CLR,,0.20,WeatherDisplay:10.37,2013-02-22 14:57:00,
2013-02-22 07:02:00,39.4,38.1,29.62,SSE,158,9.2,9.2,95,0.00,CLR,,0.20,WeatherDisplay:10.37,2013-02-22 15:02:00,
2013-02-22 07:07:00,39.6,38.2,29.61,SSE,158,6.9,6.9,95,0.00,CLR,,0.20,WeatherDisplay:10.37,2013-02-22 15:07:00,
2013-02-22 07:12:00,39.6,38.2,29.62,ESE,112,0.0,0.0,95,0.00,CLR,,0.20,WeatherDisplay:10.37,2013-02-22 15:12:00,
2013-02-22 07:17:00,39.6,38.2,29.62,SSE,158,0.0,0.0,95,0.00,CLR,,0.20,WeatherDisplay:10.37,2013-02-22 15:17:00,
2013-02-22 07:22:00,39.6,38.2,29.61,SSE,158,0.0,0.0,95,0.00,CLR,,0.20,WeatherDisplay:10.37,2013-02-22 15:22:00,
2013-02-22 07:27:00,39.7,38.4,29.62,SSE,158,8.1,8.1,95,0.00,CLR,,0.20,WeatherDisplay:10.37,2013-02-22 15:27:00,
2013-02-22 07:32:00,39.7,38.4,29.62,SSE,158,0.0,0.0,95,0.00,CLR,,0.20,WeatherDisplay:10.37,2013-02-22 15:32:00,
2013-02-22 07:37:00,39.9,38.6,29.62,ESE,112,0.0,0.0,95,0.00,CLR,,0.20,WeatherDisplay:10.37,2013-02-22 15:37:00,
2013-02-22 07:42:00,39.9,38.6,29.62,SE,135,3.5,3.5,95,0.00,CLR,,0.20,WeatherDisplay:10.37,2013-02-22 15:42:00,
2013-02-22 07:47:00,39.9,38.6,29.62,SE,135,0.0,0.0,95,0.00,CLR,,0.20,WeatherDisplay:10.37,2013-02-22 15:47:00,
2013-02-22 07:52:00,39.9,38.6,29.61,SE,135,0.0,0.0,95,0.00,CLR,,0.20,WeatherDisplay:10.37,2013-02-22 15:52:00,
2013-02-22 07:57:00,40.1,38.8,29.61,NE,45,0.0,0.0,95,0.00,CLR,,0.20,WeatherDisplay:10.37,2013-02-22 15:57:00,
2013-02-22 08:02:00,40.1,38.8,29.61,SE,135,5.1,5.1,95,0.00,CLR,,0.20,WeatherDisplay:10.37,2013-02-22 16:02:00,
2013-02-22 08:07:00,40.3,39.0,29.60,ESE,112,0.0,0.0,95,0.04,RA,,0.24,WeatherDisplay:10.37,2013-02-22 16:07:00,
2013-02-22 08:12:00,40.3,39.0,29.60,SSE,158,0.0,0.0,95,0.04,RA,,0.24,WeatherDisplay:10.37,2013-02-22 16:12:00,
2013-02-22 08:17:00,40.5,39.1,29.60,East,90,1.2,0.0,95,0.04,,,0.24,WeatherDisplay:10.37,2013-02-22 16:17:00,
2013-02-22 08:22:00,40.5,39.1,29.60,East,90,0.0,0.0,95,0.04,CLR,,0.24,WeatherDisplay:10.37,2013-02-22 16:22:00,
2013-02-22 08:27:00,40.6,39.3,29.60,SSE,158,0.0,0.0,95,0.04,CLR,,0.24,WeatherDisplay:10.37,2013-02-22 16:27:00,
2013-02-22 08:33:00,40.8,39.5,29.60,SSE,158,0.0,0.0,95,0.04,CLR,,0.24,WeatherDisplay:10.37,2013-02-22 16:33:00,
2013-02-22 08:38:00,40.8,39.2,29.60,SSE,158,2.3,2.3,94,0.04,CLR,,0.24,WeatherDisplay:10.37,2013-02-22 16:38:00,
2013-02-22 08:43:00,40.8,39.5,29.60,South,180,0.0,0.0,95,0.06,RA,,0.26,WeatherDisplay:10.37,2013-02-22 16:43:00,
2013-02-22 08:48:00,40.8,39.5,29.60,ESE,112,3.1,0.0,95,0.06,RA,,0.26,WeatherDisplay:10.37,2013-02-22 16:48:00,
2013-02-22 08:53:00,41.0,39.4,29.60,South,180,4.6,4.6,94,0.06,CLR,,0.26,WeatherDisplay:10.37,2013-02-22 16:53:00,
2013-02-22 08:58:00,41.0,39.7,29.58,SE,135,0.0,0.0,95,0.10,RA,,0.30,WeatherDisplay:10.37,2013-02-22 16:58:00,
2013-02-22 09:03:00,41.2,39.9,29.58,East,90,5.8,5.8,95,0.10,RA,,0.30,WeatherDisplay:10.37,2013-02-22 17:03:00,
2013-02-22 09:08:00,41.2,39.9,29.57,SSE,158,0.0,0.0,95,0.06,,,0.30,WeatherDisplay:10.37,2013-02-22 17:08:00,
2013-02-22 09:13:00,41.2,39.9,29.57,ESE,112,4.6,0.0,95,0.06,CLR,,0.30,WeatherDisplay:10.37,2013-02-22 17:13:00,
2013-02-22 09:18:00,41.0,39.7,29.57,ENE,68,5.1,5.1,95,0.08,RA,,0.32,WeatherDisplay:10.37,2013-02-22 17:18:00,
2013-02-22 09:23:00,41.2,39.9,29.57,WSW,248,3.5,3.5,95,0.08,RA,,0.37,WeatherDisplay:10.37,2013-02-22 17:23:00,
2013-02-22 09:28:00,41.2,39.9,29.57,South,180,2.3,2.3,95,0.12,RA,,0.37,WeatherDisplay:10.37,2013-02-22 17:28:00,
2013-02-22 09:33:00,41.0,39.7,29.58,ESE,112,2.3,2.3,95,0.14,RA,,0.39,WeatherDisplay:10.37,2013-02-22 17:33:00,
2013-02-22 09:38:00,41.2,39.9,29.58,SSE,158,0.0,0.0,95,0.14,RA,,0.39,WeatherDisplay:10.37,2013-02-22 17:38:00,
2013-02-22 09:43:00,41.0,39.7,29.58,SSE,158,0.0,0.0,95,0.12,,,0.39,WeatherDisplay:10.37,2013-02-22 17:43:00,
2013-02-22 09:48:00,41.2,39.9,29.57,South,180,0.0,0.0,95,0.12,CLR,,0.39,WeatherDisplay:10.37,2013-02-22 17:48:00,
2013-02-22 09:53:00,41.2,39.9,29.57,SSE,158,0.0,0.0,95,0.12,CLR,,0.39,WeatherDisplay:10.37,2013-02-22 17:53:00,
2013-02-22 09:58:00,41.2,39.9,29.56,ESE,112,0.0,0.0,95,0.12,RA,,0.43,WeatherDisplay:10.37,2013-02-22 17:58:00,
2013-02-22 10:03:00,41.2,39.9,29.56,SE,135,0.0,0.0,95,0.12,RA,,0.43,WeatherDisplay:10.37,2013-02-22 18:03:00,
2013-02-22 10:08:00,41.2,39.9,29.56,South,180,2.3,2.3,95,0.12,,,0.43,WeatherDisplay:10.37,2013-02-22 18:08:00,
2013-02-22 10:13:00,41.2,39.9,29.55,SE,135,0.0,0.0,95,0.12,CLR,,0.43,WeatherDisplay:10.37,2013-02-22 18:13:00,
2013-02-22 10:18:00,41.4,40.0,29.55,SE,135,3.4,3.4,95,0.10,CLR,,0.43,WeatherDisplay:10.37,2013-02-22 18:18:00,
2013-02-22 10:23:00,41.4,40.0,29.55,East,90,6.9,6.9,95,0.10,CLR,,0.43,WeatherDisplay:10.37,2013-02-22 18:23:00,
2013-02-22 10:28:00,41.5,40.2,29.55,SSE,158,0.0,0.0,95,0.06,CLR,,0.43,WeatherDisplay:10.37,2013-02-22 18:28:00,
2013-02-22 10:33:00,41.5,40.2,29.55,ESE,112,4.6,4.6,95,0.06,RA,,0.45,WeatherDisplay:10.37,2013-02-22 18:33:00,
2013-02-22 10:38:00,41.5,40.2,29.55,NE,45,3.5,3.5,95,0.06,RA,,0.45,WeatherDisplay:10.37,2013-02-22 18:38:00,
2013-02-22 10:43:00,41.7,40.4,29.56,South,180,0.0,0.0,95,0.06,,,0.45,WeatherDisplay:10.37,2013-02-22 18:43:00,
2013-02-22 10:48:00,41.9,40.6,29.55,SSE,158,11.4,11.4,95,0.06,CLR,,0.45,WeatherDisplay:10.37,2013-02-22 18:48:00,
2013-02-22 10:53:00,41.9,40.6,29.55,East,90,6.9,6.9,95,0.10,RA,,0.49,WeatherDisplay:10.37,2013-02-22 18:53:00,
2013-02-22 10:58:00,41.9,40.6,29.55,East,90,0.0,0.0,95,0.06,RA,,0.49,WeatherDisplay:10.37,2013-02-22 18:58:00,
2013-02-22 11:03:00,42.1,40.8,29.55,SSE,158,3.5,3.5,95,0.06,CLR,,0.49,WeatherDisplay:10.37,2013-02-22 19:03:00,
2013-02-22 11:08:00,42.1,40.8,29.55,South,180,0.0,0.0,95,0.08,RA,,0.51,WeatherDisplay:10.37,2013-02-22 19:08:00,
2013-02-22 11:13:00,42.1,40.8,29.55,SE,135,0.0,0.0,95,0.08,RA,,0.51,WeatherDisplay:10.37,2013-02-22 19:13:00,
2013-02-22 11:18:00,42.1,40.8,29.55,ESE,112,3.5,3.5,95,0.08,CLR,,0.51,WeatherDisplay:10.37,2013-02-22 19:18:00,
2013-02-22 11:23:00,42.1,40.8,29.54,ENE,68,3.5,3.5,95,0.12,RA,,0.55,WeatherDisplay:10.37,2013-02-22 19:23:00,
2013-02-22 11:28:00,42.1,40.8,29.54,SSE,158,9.4,9.4,95,0.12,RA,,0.55,WeatherDisplay:10.37,2013-02-22 19:28:00,
2013-02-22 11:33:00,42.3,40.9,29.53,ESE,112,0.0,0.5,95,0.10,,,0.55,WeatherDisplay:10.37,2013-02-22 19:33:00,
2013-02-22 11:38:00,42.4,41.1,29.53,SSE,158,10.4,10.4,95,0.12,RA,,0.57,WeatherDisplay:10.37,2013-02-22 19:38:00,
2013-02-22 11:43:00,42.4,41.1,29.52,SW,225,2.5,2.5,95,0.16,RA,,0.61,WeatherDisplay:10.37,2013-02-22 19:43:00,
2013-02-22 11:48:00,42.4,41.1,29.52,WSW,248,5.8,5.8,95,0.16,RA,,0.61,WeatherDisplay:10.37,2013-02-22 19:48:00,
2013-02-22 11:53:00,42.3,40.9,29.52,South,180,0.0,0.0,95,0.12,CLR,,0.61,WeatherDisplay:10.37,2013-02-22 19:53:00,
2013-02-22 11:58:00,42.3,40.9,29.52,WSW,248,6.9,6.9,95,0.14,RA,,0.63,WeatherDisplay:10.37,2013-02-22 19:58:00,
2013-02-22 12:03:00,42.1,40.8,29.51,WSW,248,0.0,0.0,95,0.14,RA,,0.63,WeatherDisplay:10.37,2013-02-22 20:03:00,
2013-02-22 12:08:00,41.9,40.6,29.50,SW,225,8.1,8.1,95,0.12,,,0.63,WeatherDisplay:10.37,2013-02-22 20:08:00,
2013-02-22 12:13:00,41.9,40.6,29.51,SSW,202,2.5,2.5,95,0.12,CLR,,0.63,WeatherDisplay:10.37,2013-02-22 20:13:00,
2013-02-22 12:18:00,41.9,40.6,29.51,ENE,68,6.9,6.9,95,0.12,CLR,,0.63,WeatherDisplay:10.37,2013-02-22 20:18:00,
2013-02-22 12:23:00,41.9,40.6,29.50,SSE,158,0.0,0.0,95,0.08,CLR,,0.63,WeatherDisplay:10.37,2013-02-22 20:23:00,
2013-02-22 12:28:00,41.9,40.6,29.49,ESE,112,0.0,0.0,95,0.08,CLR,,0.63,WeatherDisplay:10.37,2013-02-22 20:28:00,
2013-02-22 12:33:00,41.9,40.6,29.49,ESE,112,5.8,5.8,95,0.08,CLR,,0.63,WeatherDisplay:10.37,2013-02-22 20:33:00,
2013-02-22 12:38:00,41.9,40.6,29.50,East,90,2.3,2.3,95,0.06,CLR,,0.63,WeatherDisplay:10.37,2013-02-22 20:38:00,
2013-02-22 12:43:00,42.1,40.8,29.49,ESE,112,2.3,2.5,95,0.06,RA,,0.67,WeatherDisplay:10.37,2013-02-22 20:43:00,
2013-02-22 12:48:00,41.9,40.6,29.49,West,270,3.5,4.4,95,0.06,RA,,0.67,WeatherDisplay:10.37,2013-02-22 20:48:00,
2013-02-22 12:53:00,42.1,40.8,29.49,SSE,158,0.0,0.0,95,0.06,CLR,,0.67,WeatherDisplay:10.37,2013-02-22 20:53:00,
2013-02-22 12:58:00,42.1,40.8,29.49,South,180,2.5,2.5,95,0.04,CLR,,0.67,WeatherDisplay:10.37,2013-02-22 20:58:00,
2013-02-22 13:03:00,42.1,40.8,29.49,SSW,202,0.0,0.0,95,0.04,CLR,,0.67,WeatherDisplay:10.37,2013-02-22 21:03:00,
2013-02-22 13:08:00,42.1,40.8,29.48,ESE,112,1.6,1.6,95,0.04,CLR,,0.67,WeatherDisplay:10.37,2013-02-22 21:08:00,
2013-02-22 13:13:00,42.1,40.8,29.48,South,180,0.0,0.0,95,0.04,CLR,,0.67,WeatherDisplay:10.37,2013-02-22 21:13:00,
2013-02-22 13:18:00,42.3,40.9,29.48,South,180,3.5,3.5,95,0.06,RA,,0.69,WeatherDisplay:10.37,2013-02-22 21:18:00,
2013-02-22 13:23:00,42.3,40.9,29.48,South,180,4.9,4.9,95,0.06,RA,,0.69,WeatherDisplay:10.37,2013-02-22 21:23:00,
2013-02-22 13:28:00,42.4,41.1,29.48,NE,45,9.2,9.2,95,0.06,CLR,,0.69,WeatherDisplay:10.37,2013-02-22 21:28:00,
2013-02-22 13:33:00,42.4,41.1,29.47,East,90,3.5,3.5,95,0.06,CLR,,0.69,WeatherDisplay:10.37,2013-02-22 21:33:00,
2013-02-22 13:38:00,42.4,41.1,29.47,ESE,112,2.3,2.3,95,0.06,CLR,,0.69,WeatherDisplay:10.37,2013-02-22 21:38:00,
2013-02-22 13:43:00,42.4,41.1,29.46,SSW,202,12.7,0.0,95,0.02,CLR,,0.69,WeatherDisplay:10.37,2013-02-22 21:43:00,
2013-02-22 13:48:00,42.4,41.1,29.46,SE,135,9.2,9.2,95,0.02,CLR,,0.69,WeatherDisplay:10.37,2013-02-22 21:48:00,
2013-02-22 13:53:00,42.4,41.1,29.45,ENE,68,9.2,9.2,95,0.02,CLR,,0.69,WeatherDisplay:10.37,2013-02-22 21:53:00,
2013-02-22 13:58:00,42.6,41.3,29.46,SW,225,0.0,0.0,95,0.02,CLR,,0.69,WeatherDisplay:10.37,2013-02-22 21:58:00,
2013-02-22 14:03:00,42.6,41.0,29.46,SW,225,8.1,8.1,94,0.02,CLR,,0.69,WeatherDisplay:10.37,2013-02-22 22:03:00,
2013-02-22 14:08:00,42.6,41.0,29.46,SSE,158,12.7,12.7,94,0.02,CLR,,0.69,WeatherDisplay:10.37,2013-02-22 22:08:00,
2013-02-22 14:13:00,43.0,41.4,29.46,ENE,68,0.0,0.0,94,0.02,CLR,,0.69,WeatherDisplay:10.37,2013-02-22 22:13:00,
2013-02-22 14:18:00,43.0,41.4,29.47,West,270,0.0,0.0,94,0.00,CLR,,0.69,WeatherDisplay:10.37,2013-02-22 22:18:00,
2013-02-22 14:23:00,43.2,41.6,29.47,SSE,158,3.5,3.5,94,0.00,CLR,,0.69,WeatherDisplay:10.37,2013-02-22 22:23:00,
2013-02-22 14:28:00,43.2,41.3,29.46,SE,135,0.0,0.0,93,0.00,CLR,,0.69,WeatherDisplay:10.37,2013-02-22 22:28:00,
2013-02-22 14:33:00,43.3,41.5,29.46,SW,225,0.0,0.0,93,0.00,CLR,,0.69,WeatherDisplay:10.37,2013-02-22 22:33:00,
2013-02-22 14:38:00,43.3,41.5,29.45,WSW,248,1.2,1.2,93,0.00,CLR,,0.69,WeatherDisplay:10.37,2013-02-22 22:38:00,
2013-02-22 14:43:00,43.3,41.5,29.46,SE,135,2.3,2.3,93,0.00,CLR,,0.69,WeatherDisplay:10.37,2013-02-22 22:43:00,
2013-02-22 14:48:00,43.3,41.5,29.46,SSE,158,1.2,1.2,93,0.00,CLR,,0.69,WeatherDisplay:10.37,2013-02-22 22:48:00,
2013-02-22 14:53:00,43.3,41.5,29.47,SW,225,0.0,0.0,93,0.00,CLR,,0.69,WeatherDisplay:10.37,2013-02-22 22:53:00,
2013-02-22 14:58:00,43.2,41.3,29.47,SSW,202,3.8,3.8,93,0.00,CLR,,0.69,WeatherDisplay:10.37,2013-02-22 22:58:00,
2013-02-22 15:03:00,43.0,41.1,29.47,ENE,68,0.0,1.1,93,0.00,CLR,,0.69,WeatherDisplay:10.37,2013-02-22 23:03:00,
2013-02-22 15:08:00,42.8,40.9,29.47,SSE,158,0.0,0.0,93,0.04,RA,,0.73,WeatherDisplay:10.37,2013-02-22 23:08:00,
2013-02-22 15:13:00,42.6,40.7,29.47,SE,135,0.0,0.0,93,0.04,RA,,0.73,WeatherDisplay:10.37,2013-02-22 23:13:00,
2013-02-22 15:18:00,42.6,40.7,29.47,NNW,338,0.0,0.0,93,0.04,,,0.73,WeatherDisplay:10.37,2013-02-22 23:18:00,
2013-02-22 15:23:00,43.0,41.1,29.47,SE,135,8.1,8.1,93,0.04,CLR,,0.73,WeatherDisplay:10.37,2013-02-22 23:23:00,
2013-02-22 15:28:00,43.3,41.5,29.47,East,90,2.3,2.3,93,0.04,CLR,,0.73,WeatherDisplay:10.37,2013-02-22 23:28:00,
2013-02-22 15:33:00,43.5,41.6,29.46,SSE,158,0.0,0.0,93,0.04,CLR,,0.73,WeatherDisplay:10.37,2013-02-22 23:33:00,
2013-02-22 15:38:00,43.5,41.9,29.47,SSE,158,0.0,0.1,94,0.04,CLR,,0.73,WeatherDisplay:10.37,2013-02-22 23:38:00,
2013-02-22 15:44:00,43.5,41.9,29.47,SSE,158,3.5,3.5,94,0.04,CLR,,0.73,WeatherDisplay:10.37,2013-02-22 23:44:00,
2013-02-22 15:49:00,43.5,41.9,29.47,SSE,158,4.6,0.0,94,0.04,CLR,,0.73,WeatherDisplay:10.37,2013-02-22 23:49:00,
2013-02-22 15:54:00,43.3,41.7,29.47,SSE,158,0.0,0.0,94,0.04,CLR,,0.73,WeatherDisplay:10.37,2013-02-22 23:54:00,
2013-02-22 15:59:00,43.3,41.5,29.47,SE,135,3.1,3.1,93,0.04,CLR,,0.73,WeatherDisplay:10.37,2013-02-22 23:59:00,
2013-02-22 16:04:00,43.2,41.3,29.47,ESE,112,2.3,0.0,93,0.04,CLR,,0.73,WeatherDisplay:10.37,2013-02-23 00:04:00,
2013-02-22 16:09:00,43.0,41.1,29.47,South,180,0.0,0.0,93,0.00,CLR,,0.73,WeatherDisplay:10.37,2013-02-23 00:09:00,
2013-02-22 16:14:00,43.0,41.1,29.48,ENE,68,0.0,0.0,93,0.00,CLR,,0.75,WeatherDisplay:10.37,2013-02-23 00:14:00,
2013-02-22 16:19:00,42.6,41.0,29.48,NNE,22,0.0,0.0,94,0.02,RA,,0.75,WeatherDisplay:10.37,2013-02-23 00:19:00,
2013-02-22 16:24:00,43.0,41.4,29.48,SW,225,0.0,0.0,94,0.02,RA,,0.75,WeatherDisplay:10.37,2013-02-23 00:24:00,
2013-02-22 16:29:00,43.3,41.7,29.48,South,180,0.0,0.0,94,0.02,CLR,,0.75,WeatherDisplay:10.37,2013-02-23 00:29:00,
2013-02-22 16:34:00,43.3,41.7,29.48,SE,135,0.0,0.0,94,0.06,RA,,0.79,WeatherDisplay:10.37,2013-02-23 00:34:00,
2013-02-22 16:39:00,43.2,41.3,29.48,ESE,112,0.0,0.0,93,0.06,RA,,0.79,WeatherDisplay:10.37,2013-02-23 00:39:00,
2013-02-22 16:44:00,42.8,40.9,29.48,WSW,248,8.1,8.1,93,0.06,CLR,,0.79,WeatherDisplay:10.37,2013-02-23 00:44:00,
2013-02-22 16:49:00,42.6,40.7,29.48,WSW,248,2.3,2.3,93,0.06,CLR,,0.79,WeatherDisplay:10.37,2013-02-23 00:49:00,
2013-02-22 16:54:00,42.4,40.3,29.48,NE,45,3.5,3.5,92,0.06,CLR,,0.79,WeatherDisplay:10.37,2013-02-23 00:54:00,
2013-02-22 16:59:00,42.4,40.0,29.48,ESE,112,5.8,5.8,91,0.06,CLR,,0.79,WeatherDisplay:10.37,2013-02-23 00:59:00,
2013-02-22 17:04:00,42.1,39.6,29.48,SE,135,0.0,0.0,91,0.06,CLR,,0.79,WeatherDisplay:10.37,2013-02-23 01:04:00,
2013-02-22 17:09:00,42.1,39.6,29.48,South,180,0.0,0.0,91,0.06,CLR,,0.79,WeatherDisplay:10.37,2013-02-23 01:09:00,
2013-02-22 17:14:00,41.9,39.5,29.49,WNW,292,4.9,4.9,91,0.06,CLR,,0.79,WeatherDisplay:10.37,2013-02-23 01:14:00,
2013-02-22 17:19:00,41.9,39.2,29.48,WSW,248,3.5,3.5,90,0.04,CLR,,0.79,WeatherDisplay:10.37,2013-02-23 01:19:00,
2013-02-22 17:24:00,41.9,39.2,29.48,ENE,68,0.0,0.0,90,0.04,CLR,,0.79,WeatherDisplay:10.37,2013-02-23 01:24:00,
2013-02-22 17:29:00,41.5,38.8,29.48,NW,315,0.0,0.0,90,0.04,CLR,,0.79,WeatherDisplay:10.37,2013-02-23 01:29:00,
2013-02-22 17:34:00,41.5,38.8,29.48,WSW,248,3.8,3.8,90,0.00,CLR,,0.79,WeatherDisplay:10.37,2013-02-23 01:34:00,
2013-02-22 17:39:00,41.5,38.8,29.49,SW,225,2.5,2.5,90,0.00,CLR,,0.79,WeatherDisplay:10.37,2013-02-23 01:39:00,
2013-02-22 17:44:00,41.4,38.6,29.49,ESE,112,1.2,1.2,90,0.00,CLR,,0.79,WeatherDisplay:10.37,2013-02-23 01:44:00,
2013-02-22 17:49:00,41.2,38.5,29.48,SW,225,0.0,0.0,90,0.00,CLR,,0.79,WeatherDisplay:10.37,2013-02-23 01:49:00,
2013-02-22 17:54:00,41.2,38.5,29.48,ENE,68,0.0,0.0,90,0.00,CLR,,0.79,WeatherDisplay:10.37,2013-02-23 01:54:00,
2013-02-22 17:59:00,41.0,38.0,29.48,NNW,338,2.7,2.7,89,0.00,CLR,,0.79,WeatherDisplay:10.37,2013-02-23 01:59:00,
2013-02-22 18:04:00,40.8,37.8,29.49,South,180,8.1,8.1,89,0.00,CLR,,0.79,WeatherDisplay:10.37,2013-02-23 02:04:00,
2013-02-22 18:09:00,41.0,38.0,29.49,WNW,292,0.0,0.0,89,0.00,CLR,,0.79,WeatherDisplay:10.37,2013-02-23 02:09:00,
2013-02-22 18:14:00,41.2,38.2,29.48,West,270,0.0,0.0,89,0.00,CLR,,0.79,WeatherDisplay:10.37,2013-02-23 02:14:00,
2013-02-22 18:19:00,40.8,37.8,29.49,SSE,158,2.3,0.0,89,0.00,CLR,,0.79,WeatherDisplay:10.37,2013-02-23 02:19:00,
2013-02-22 18:24:00,40.6,37.4,29.48,WNW,292,0.0,0.0,88,0.00,CLR,,0.79,WeatherDisplay:10.37,2013-02-23 02:24:00,
2013-02-22 18:29:00,40.3,37.0,29.49,NNE,22,0.0,0.0,88,0.00,CLR,,0.79,WeatherDisplay:10.37,2013-02-23 02:29:00,
2013-02-22 18:34:00,40.1,36.8,29.49,East,90,3.8,3.8,88,0.00,CLR,,0.79,WeatherDisplay:10.37,2013-02-23 02:34:00,
2013-02-22 18:39:00,39.9,36.7,29.50,NW,315,0.0,0.0,88,0.00,CLR,,0.79,WeatherDisplay:10.37,2013-02-23 02:39:00,
2013-02-22 18:44:00,39.9,36.7,29.50,West,270,6.5,6.5,88,0.00,CLR,,0.79,WeatherDisplay:10.37,2013-02-23 02:44:00,
2013-02-22 18:49:00,39.7,36.2,29.51,WNW,292,2.3,2.3,87,0.00,CLR,,0.79,WeatherDisplay:10.37,2013-02-23 02:49:00,
2013-02-22 18:54:00,39.7,36.2,29.51,NNE,22,3.5,3.5,87,0.00,CLR,,0.79,WeatherDisplay:10.37,2013-02-23 02:54:00,
2013-02-22 18:59:00,39.6,36.0,29.52,SSW,202,0.0,0.0,87,0.00,CLR,,0.79,WeatherDisplay:10.37,2013-02-23 02:59:00,
2013-02-22 19:04:00,39.6,36.0,29.53,SSW,202,0.0,0.0,87,0.00,CLR,,0.79,WeatherDisplay:10.37,2013-02-23 03:04:00,
2013-02-22 19:09:00,39.4,35.8,29.53,South,180,0.0,0.0,87,0.00,CLR,,0.79,WeatherDisplay:10.37,2013-02-23 03:09:00,
2013-02-22 19:14:00,39.4,35.8,29.53,WNW,292,0.0,0.0,87,0.00,CLR,,0.79,WeatherDisplay:10.37,2013-02-23 03:14:00,
2013-02-22 19:19:00,39.4,35.8,29.53,SSE,158,0.0,0.0,87,0.00,CLR,,0.79,WeatherDisplay:10.37,2013-02-23 03:19:00,
2013-02-22 19:24:00,39.4,35.8,29.54,NE,45,0.0,0.0,87,0.00,CLR,,0.79,WeatherDisplay:10.37,2013-02-23 03:24:00,
2013-02-22 19:29:00,39.4,35.8,29.54,WNW,292,4.6,4.6,87,0.00,CLR,,0.79,WeatherDisplay:10.37,2013-02-23 03:29:00,
2013-02-22 19:34:00,39.4,35.8,29.54,SW,225,3.5,3.5,87,0.00,CLR,,0.79,WeatherDisplay:10.37,2013-02-23 03:34:00,
2013-02-22 19:39:00,39.6,36.0,29.53,South,180,0.0,0.0,87,0.00,CLR,,0.79,WeatherDisplay:10.37,2013-02-23 03:39:00,
2013-02-22 19:44:00,39.6,36.0,29.53,WSW,248,0.0,0.0,87,0.00,CLR,,0.79,WeatherDisplay:10.37,2013-02-23 03:44:00,
2013-02-22 19:49:00,39.7,36.2,29.54,NE,45,1.6,1.6,87,0.00,CLR,,0.79,WeatherDisplay:10.37,2013-02-23 03:49:00,
2013-02-22 19:54:00,39.7,36.2,29.55,South,180,3.5,3.5,87,0.00,CLR,,0.79,WeatherDisplay:10.37,2013-02-23 03:54:00,
2013-02-22 19:59:00,39.7,36.2,29.55,SSW,202,0.0,0.0,87,0.00,CLR,,0.79,WeatherDisplay:10.37,2013-02-23 03:59:00,
2013-02-22 20:04:00,39.6,36.0,29.55,SSW,202,0.0,0.0,87,0.00,CLR,,0.79,WeatherDisplay:10.37,2013-02-23 04:04:00,
2013-02-22 20:09:00,39.4,35.8,29.55,SE,135,0.0,0.0,87,0.00,CLR,,0.79,WeatherDisplay:10.37,2013-02-23 04:09:00,
2013-02-22 20:14:00,39.4,35.8,29.56,SE,135,0.0,0.0,87,0.00,CLR,,0.79,WeatherDisplay:10.37,2013-02-23 04:14:00,
2013-02-22 20:19:00,39.4,35.8,29.55,WSW,248,3.5,0.0,87,0.00,CLR,,0.79,WeatherDisplay:10.37,2013-02-23 04:19:00,
2013-02-22 20:24:00,39.4,35.8,29.56,South,180,0.0,0.0,87,0.00,CLR,,0.79,WeatherDisplay:10.37,2013-02-23 04:24:00,
2013-02-22 20:29:00,39.2,35.7,29.55,NNE,22,0.0,0.0,87,0.00,CLR,,0.79,WeatherDisplay:10.37,2013-02-23 04:29:00,
2013-02-22 20:34:00,39.0,35.2,29.56,SW,225,0.0,0.0,86,0.00,CLR,,0.79,WeatherDisplay:10.37,2013-02-23 04:34:00,
2013-02-22 20:39:00,39.0,35.2,29.56,WNW,292,0.0,0.0,86,0.00,CLR,,0.79,WeatherDisplay:10.37,2013-02-23 04:39:00,
2013-02-22 20:44:00,39.0,35.2,29.56,SSE,158,0.0,0.0,86,0.00,CLR,,0.79,WeatherDisplay:10.37,2013-02-23 04:44:00,
2013-02-22 20:49:00,39.0,35.2,29.57,SW,225,1.6,1.6,86,0.00,CLR,,0.79,WeatherDisplay:10.37,2013-02-23 04:49:00,
2013-02-22 20:54:00,39.0,35.5,29.57,SE,135,0.0,0.0,87,0.00,CLR,,0.79,WeatherDisplay:10.37,2013-02-23 04:54:00,
2013-02-22 20:59:00,39.0,35.5,29.57,East,90,0.0,0.0,87,0.00,CLR,,0.79,WeatherDisplay:10.37,2013-02-23 04:59:00,
2013-02-22 21:00:00,39.0,35.5,29.57,East,90,0.0,0.0,87,0.00,CLR,,0.79,WeatherDisplay:10.37,2013-02-23 05:00:00,
2013-02-22 21:01:00,39.0,35.5,29.57,SW,225,2.9,2.9,87,0.00,CLR,,0.79,WeatherDisplay:10.37,2013-02-23 05:01:00,
2013-02-22 21:06:00,39.0,35.5,29.58,West,270,3.5,3.5,87,0.00,CLR,,0.79,WeatherDisplay:10.37,2013-02-23 05:06:00,
2013-02-22 21:11:00,39.0,35.5,29.58,SSE,158,0.0,0.0,87,0.00,CLR,,0.79,WeatherDisplay:10.37,2013-02-23 05:11:00,
2013-02-22 21:16:00,39.0,35.5,29.58,ENE,68,0.0,0.0,87,0.00,CLR,,0.79,WeatherDisplay:10.37,2013-02-23 05:16:00,
2013-02-22 21:21:00,39.0,35.5,29.58,SSW,202,0.0,0.0,87,0.00,CLR,,0.79,WeatherDisplay:10.37,2013-02-23 05:21:00,
2013-02-22 21:26:00,38.8,35.3,29.58,ENE,68,0.0,0.0,87,0.00,CLR,,0.79,WeatherDisplay:10.37,2013-02-23 05:26:00,
2013-02-22 21:31:00,39.0,35.5,29.58,East,90,1.2,1.2,87,0.00,CLR,,0.79,WeatherDisplay:10.37,2013-02-23 05:31:00,
2013-02-22 21:33:00,38.8,35.3,29.59,South,180,0.0,0.0,87,0.00,CLR,,0.79,WeatherDisplay:10.37,2013-02-23 05:33:00,
2013-02-22 21:35:00,38.8,35.3,29.59,South,180,0.0,0.0,87,0.00,CLR,,0.79,WeatherDisplay:10.37,2013-02-23 05:35:00,
2013-02-22 21:40:00,39.0,35.5,29.60,SW,225,0.0,0.0,87,0.00,CLR,,0.79,WeatherDisplay:10.37,2013-02-23 05:40:00,
2013-02-22 21:45:00,38.8,35.3,29.60,East,90,0.0,0.0,87,0.00,CLR,,0.79,WeatherDisplay:10.37,2013-02-23 05:45:00,
2013-02-22 21:50:00,38.8,35.3,29.59,SSE,158,0.0,0.0,87,0.00,CLR,,0.79,WeatherDisplay:10.37,2013-02-23 05:50:00,
2013-02-22 21:55:00,38.8,35.3,29.60,SSE,158,0.0,0.0,87,0.00,CLR,,0.79,WeatherDisplay:10.37,2013-02-23 05:55:00,
2013-02-22 22:00:00,38.8,35.3,29.60,West,270,0.0,0.0,87,0.00,CLR,,0.79,WeatherDisplay:10.37,2013-02-23 06:00:00,
2013-02-22 22:05:00,38.8,35.3,29.60,SSE,158,4.6,4.6,87,0.00,CLR,,0.79,WeatherDisplay:10.37,2013-02-23 06:05:00,
2013-02-22 22:10:00,38.8,35.3,29.60,SE,135,0.0,0.0,87,0.00,CLR,,0.79,WeatherDisplay:10.37,2013-02-23 06:10:00,
2013-02-22 22:15:00,38.8,35.3,29.61,ESE,112,0.0,0.0,87,0.00,CLR,,0.79,WeatherDisplay:10.37,2013-02-23 06:15:00,
2013-02-22 22:20:00,38.8,35.3,29.61,SSW,202,0.0,0.0,87,0.00,CLR,,0.79,WeatherDisplay:10.37,2013-02-23 06:20:00,
2013-02-22 22:25:00,38.8,35.3,29.61,South,180,0.0,0.0,87,0.00,CLR,,0.79,WeatherDisplay:10.37,2013-02-23 06:25:00,
2013-02-22 22:31:00,38.5,34.9,29.61,SE,135,0.0,0.0,87,0.00,CLR,,0.79,WeatherDisplay:10.37,2013-02-23 06:31:00,
2013-02-22 22:36:00,38.5,34.9,29.61,SSE,158,6.9,6.9,87,0.00,CLR,,0.79,WeatherDisplay:10.37,2013-02-23 06:36:00,
2013-02-22 22:41:00,38.5,34.9,29.62,South,180,6.0,6.0,87,0.00,CLR,,0.79,WeatherDisplay:10.37,2013-02-23 06:41:00,
2013-02-22 22:46:00,38.3,34.8,29.62,SE,135,0.0,0.0,87,0.00,CLR,,0.79,WeatherDisplay:10.37,2013-02-23 06:46:00,
2013-02-22 22:51:00,38.3,34.8,29.62,SSW,202,0.0,0.0,87,0.00,CLR,,0.79,WeatherDisplay:10.37,2013-02-23 06:51:00,
2013-02-22 22:56:00,38.3,34.8,29.62,ENE,68,0.0,0.0,87,0.00,CLR,,0.79,WeatherDisplay:10.37,2013-02-23 06:56:00,
2013-02-22 23:01:00,38.1,34.6,29.63,East,90,0.0,0.0,87,0.00,CLR,,0.79,WeatherDisplay:10.37,2013-02-23 07:01:00,
2013-02-22 23:06:00,38.1,34.6,29.62,SE,135,2.3,0.0,87,0.00,CLR,,0.79,WeatherDisplay:10.37,2013-02-23 07:06:00,
2013-02-22 23:11:00,38.1,34.6,29.63,ESE,112,0.0,0.0,87,0.00,CLR,,0.79,WeatherDisplay:10.37,2013-02-23 07:11:00,
2013-02-22 23:16:00,38.1,34.9,29.64,ESE,112,0.0,0.0,88,0.00,CLR,,0.79,WeatherDisplay:10.37,2013-02-23 07:16:00,
2013-02-22 23:21:00,38.1,34.9,29.64,East,90,0.0,0.0,88,0.00,CLR,,0.79,WeatherDisplay:10.37,2013-02-23 07:21:00,
2013-02-22 23:26:00,38.1,34.9,29.64,East,90,0.0,0.0,88,0.00,CLR,,0.79,WeatherDisplay:10.37,2013-02-23 07:26:00,
2013-02-22 23:31:00,38.1,34.9,29.65,East,90,0.0,0.0,88,0.00,CLR,,0.79,WeatherDisplay:10.37,2013-02-23 07:31:00,
2013-02-22 23:36:00,38.1,34.9,29.65,SSE,158,0.0,0.0,88,0.00,CLR,,0.79,WeatherDisplay:10.37,2013-02-23 07:36:00,
2013-02-22 23:41:00,38.1,34.9,29.64,SSE,158,0.0,0.0,88,0.00,CLR,,0.79,WeatherDisplay:10.37,2013-02-23 07:41:00,
2013-02-22 23:46:00,38.1,34.9,29.64,SSW,202,4.6,4.6,88,0.00,CLR,,0.79,WeatherDisplay:10.37,2013-02-23 07:46:00,
2013-02-22 23:51:00,38.1,34.9,29.65,SSE,158,4.6,0.0,88,0.00,CLR,,0.79,WeatherDisplay:10.37,2013-02-23 07:51:00,
2013-02-22 23:56:00,38.1,34.9,29.65,SSE,158,0.0,0.0,88,0.00,CLR,,0.79,WeatherDisplay:10.37,2013-02-23 07:56:00,